createdAt,value
2022-12-01T00:02:13.907Z,99617.19
2022-12-01T00:04:56.452Z,99619.92
2022-12-01T00:07:44.855Z,99618.25
2022-12-01T00:10:35.804Z,99620.47
2022-12-01T00:13:23.984Z,99620.86
2022-12-01T00:15:59.138Z,99620.66
2022-12-01T00:18:46.948Z,99622.11
2022-12-01T00:21:22.919Z,99620.46
2022-12-01T00:24:10.791Z,99616.94
2022-12-01T00:26:52.780Z,99615.27
2022-12-01T00:29:40.801Z,99613.89
2022-12-01T00:32:22.784Z,99617.11
2022-12-01T00:35:18.775Z,99617.46
2022-12-01T00:38:06.779Z,99616.33
2022-12-01T00:40:41.922Z,99611.83
2022-12-01T00:43:30.931Z,99611.46
2022-12-01T00:46:06.049Z,99615.05
2022-12-01T00:48:53.759Z,99618.42
2022-12-01T00:51:34.776Z,99615.80
2022-12-01T00:54:22.916Z,99616.89
2022-12-01T00:56:57.920Z,99613.16
2022-12-01T00:59:45.938Z,99616.80
2022-12-01T01:02:20.982Z,99614.42
2022-12-01T01:05:08.767Z,99612.55
2022-12-01T01:07:49.962Z,99608.62
2022-12-01T01:10:30.736Z,99609.92
2022-12-01T01:13:11.908Z,99608.36
2022-12-01T01:15:52.789Z,99607.88
2022-12-01T01:18:41.771Z,99605.50
2022-12-01T01:21:18.426Z,99605.39
2022-12-01T01:24:08.724Z,99604.72
2022-12-01T01:26:43.249Z,99605.61
2022-12-01T01:29:30.789Z,99602.30
2022-12-01T01:32:05.508Z,99598.70
2022-12-01T01:34:53.781Z,99603.35
2022-12-01T01:37:34.788Z,99605.14
2022-12-01T01:40:16.898Z,99604.71
2022-12-01T01:42:57.720Z,99603.98
2022-12-01T01:45:38.917Z,99601.48
2022-12-01T01:48:20.768Z,99598.63
2022-12-01T01:51:03.014Z,99600.16
2022-12-01T01:53:44.755Z,99598.29
2022-12-01T01:56:25.965Z,99593.33
2022-12-01T01:59:13.766Z,99592.56
2022-12-01T02:01:49.261Z,99590.24
2022-12-01T02:04:36.776Z,99587.30
2022-12-01T02:07:11.980Z,99591.40
2022-12-01T02:10:00.774Z,99595.59
2022-12-01T02:13:13.753Z,99590.84
2022-12-01T02:16:23.852Z,99592.75
2022-12-01T02:19:26.750Z,99593.36
2022-12-01T02:22:32.918Z,99589.02
2022-12-01T02:25:29.744Z,99588.23
2022-12-01T02:29:00.760Z,99590.21
2022-12-01T02:32:00.883Z,99595.73
2022-12-01T02:34:53.746Z,99599.16
2022-12-01T02:37:34.884Z,99589.89
2022-12-01T02:40:58.778Z,99589.33
2022-12-01T02:43:55.888Z,99591.58
2022-12-01T02:46:43.925Z,99587.98
2022-12-01T02:49:39.952Z,99586.12
2022-12-01T02:52:16.590Z,99587.27
2022-12-01T02:55:05.766Z,99589.48
2022-12-01T02:57:40.312Z,99588.98
2022-12-01T03:00:29.761Z,99587.30
2022-12-01T03:03:36.749Z,99591.32
2022-12-01T03:06:30.905Z,99588.48
2022-12-01T03:09:40.903Z,99586.66
2022-12-01T03:13:03.961Z,99583.42
2022-12-01T03:15:55.174Z,99584.45
2022-12-01T03:18:49.748Z,99590.01
2022-12-01T03:21:48.736Z,99588.01
2022-12-01T03:24:39.736Z,99587.02
2022-12-01T03:27:14.945Z,99587.87
2022-12-01T03:30:05.730Z,99585.43
2022-12-01T03:32:47.618Z,99584.48
2022-12-01T03:35:40.759Z,99580.98
2022-12-01T03:38:27.711Z,99574.71
2022-12-01T03:41:30.711Z,99576.52
2022-12-01T03:44:30.727Z,99578.42
2022-12-01T03:47:24.744Z,99573.15
2022-12-01T03:50:06.730Z,99569.31
2022-12-01T03:53:13.944Z,99568.16
2022-12-01T03:56:09.879Z,99571.16
2022-12-01T03:58:55.738Z,99568.73
2022-12-01T04:01:50.762Z,99569.35
2022-12-01T04:04:38.756Z,99570.13
2022-12-01T04:07:21.791Z,99569.90
2022-12-01T04:10:04.362Z,99563.55
2022-12-01T04:12:52.747Z,99568.11
2022-12-01T04:15:28.158Z,99568.05
2022-12-01T04:18:15.733Z,99561.20
2022-12-01T04:20:56.744Z,99558.80
2022-12-01T04:24:03.738Z,99553.27
2022-12-01T04:26:52.743Z,99554.34
2022-12-01T04:29:40.719Z,99547.88
2022-12-01T04:32:15.880Z,99543.20
2022-12-01T04:35:03.724Z,99547.62
2022-12-01T04:37:45.736Z,99549.83
2022-12-01T04:40:40.728Z,99546.14
2022-12-01T04:43:28.743Z,99545.02
2022-12-01T04:46:04.063Z,99540.59
2022-12-01T04:48:51.717Z,99532.83
2022-12-01T04:51:27.035Z,99538.52
2022-12-01T04:54:14.720Z,99542.46
2022-12-01T04:56:49.885Z,99545.09
2022-12-01T04:59:37.838Z,99549.14
2022-12-01T05:02:12.870Z,99549.94
2022-12-01T05:05:00.746Z,99552.80
2022-12-01T05:07:35.879Z,99549.36
2022-12-01T05:10:25.752Z,99550.27
2022-12-01T05:13:00.853Z,99548.10
2022-12-01T05:15:48.777Z,99548.64
2022-12-01T05:18:30.732Z,99552.66
2022-12-01T05:21:25.709Z,99555.10
2022-12-01T05:24:14.739Z,99558.04
2022-12-01T05:26:49.870Z,99561.52
2022-12-01T05:29:39.876Z,99563.70
2022-12-01T05:32:15.011Z,99564.42
2022-12-01T05:35:02.846Z,99564.73
2022-12-01T05:37:50.715Z,99562.30
2022-12-01T05:40:25.305Z,99563.13
2022-12-01T05:43:13.857Z,99569.22
2022-12-01T05:45:56.777Z,99571.34
2022-12-01T05:48:44.735Z,99576.34
2022-12-01T05:51:19.175Z,99575.89
2022-12-01T05:54:06.710Z,99575.02
2022-12-01T05:56:41.283Z,99576.63
2022-12-01T05:59:28.692Z,99581.39
2022-12-01T06:02:03.204Z,99584.11
2022-12-01T06:04:50.669Z,99585.39
2022-12-01T06:07:26.199Z,99586.48
2022-12-01T06:10:13.916Z,99586.64
2022-12-01T06:12:49.272Z,99587.13
2022-12-01T06:15:37.739Z,99588.30
2022-12-01T06:18:12.151Z,99589.52
2022-12-01T06:21:00.921Z,99591.09
2022-12-01T06:23:42.893Z,99591.67
2022-12-01T06:26:37.895Z,99594.59
2022-12-01T06:29:25.736Z,99595.95
2022-12-01T06:32:01.020Z,99593.38
2022-12-01T06:34:48.717Z,99593.38
2022-12-01T06:37:30.687Z,99598.09
2022-12-01T06:40:26.681Z,99601.02
2022-12-01T06:43:14.692Z,99602.02
2022-12-01T06:45:50.046Z,99599.79
2022-12-01T06:48:38.712Z,99598.94
2022-12-01T06:51:20.694Z,99599.70
2022-12-01T06:54:15.858Z,99600.79
2022-12-01T06:57:03.972Z,99601.60
2022-12-01T06:59:38.841Z,99604.02
2022-12-01T07:02:26.907Z,99608.11
2022-12-01T07:05:08.697Z,99612.65
2022-12-01T07:07:59.677Z,99609.22
2022-12-01T07:10:35.111Z,99607.27
2022-12-01T07:13:22.842Z,99603.71
2022-12-01T07:15:57.981Z,99604.09
2022-12-01T07:18:47.862Z,99604.64
2022-12-01T07:21:30.883Z,99603.33
2022-12-01T07:24:25.676Z,99605.34
2022-12-01T07:27:13.694Z,99605.95
2022-12-01T07:29:48.992Z,99606.64
2022-12-01T07:32:36.694Z,99603.84
2022-12-01T07:35:11.835Z,99600.40
2022-12-01T07:38:03.855Z,99599.51
2022-12-01T07:40:38.997Z,99598.30
2022-12-01T07:43:26.828Z,99600.75
2022-12-01T07:46:01.996Z,99596.20
2022-12-01T07:48:49.886Z,99599.88
2022-12-01T07:51:24.830Z,99599.04
2022-12-01T07:54:13.680Z,99600.14
2022-12-01T07:56:49.029Z,99601.56
2022-12-01T07:59:36.704Z,99601.41
2022-12-01T08:02:18.758Z,99601.40
2022-12-01T08:05:06.669Z,99599.71
2022-12-01T08:07:41.935Z,99600.39
2022-12-01T08:10:29.682Z,99596.63
2022-12-01T08:13:04.868Z,99595.85
2022-12-01T08:15:52.893Z,99594.55
2022-12-01T08:18:28.819Z,99594.77
2022-12-01T08:21:20.702Z,99598.60
2022-12-01T08:24:06.669Z,99599.88
2022-12-01T08:27:01.837Z,99603.64
2022-12-01T08:29:49.844Z,99604.51
2022-12-01T08:32:24.828Z,99605.16
2022-12-01T08:35:12.667Z,99603.16
2022-12-01T08:37:47.824Z,99604.66
2022-12-01T08:40:35.703Z,99604.23
2022-12-01T08:43:34.737Z,99605.23
2022-12-01T08:46:25.883Z,99606.33
2022-12-01T08:49:05.873Z,99608.02
2022-12-01T08:51:56.675Z,99611.27
2022-12-01T08:54:31.839Z,99611.17
2022-12-01T08:57:13.796Z,99613.09
2022-12-01T08:59:56.920Z,99613.59
2022-12-01T09:02:38.740Z,99612.39
2022-12-01T09:05:26.691Z,99611.30
2022-12-01T09:08:40.914Z,99612.48
2022-12-01T09:11:28.839Z,99611.42
2022-12-01T09:14:05.843Z,99611.17
2022-12-01T09:16:56.804Z,99612.77
2022-12-01T09:19:31.827Z,99610.98
2022-12-01T09:22:19.803Z,99609.52
2022-12-01T09:25:01.622Z,99605.70
2022-12-01T09:27:49.821Z,99603.86
2022-12-01T09:30:30.720Z,99603.86
2022-12-01T09:33:11.895Z,99606.17
2022-12-01T09:35:52.754Z,99604.95
2022-12-01T09:38:39.885Z,99603.77
2022-12-01T09:41:30.778Z,99600.99
2022-12-01T09:44:31.821Z,99596.43
2022-12-01T09:47:21.814Z,99596.25
2022-12-01T09:50:14.687Z,99594.33
2022-12-01T09:52:56.155Z,99592.96
2022-12-01T09:55:43.639Z,99591.17
2022-12-01T09:58:24.800Z,99589.14
2022-12-01T10:01:12.690Z,99584.91
2022-12-01T10:03:52.860Z,99582.26
2022-12-01T10:06:49.664Z,99584.73
2022-12-01T10:09:40.959Z,99580.55
2022-12-01T10:12:34.856Z,99580.38
2022-12-01T10:15:38.708Z,99578.41
2022-12-01T10:18:34.194Z,99580.49
2022-12-01T10:21:30.651Z,99579.36
2022-12-01T10:24:14.983Z,99579.09
2022-12-01T10:27:08.845Z,99576.87
2022-12-01T10:29:56.795Z,99579.44
2022-12-01T10:33:26.823Z,99577.02
2022-12-01T10:36:16.651Z,99574.42
2022-12-01T10:38:51.937Z,99573.23
2022-12-01T10:41:42.671Z,99571.87
2022-12-01T10:44:17.980Z,99569.19
2022-12-01T10:47:05.627Z,99567.80
2022-12-01T10:49:53.089Z,99563.90
2022-12-01T10:52:52.637Z,99560.39
2022-12-01T10:55:48.175Z,99561.73
2022-12-01T10:58:24.933Z,99562.95
2022-12-01T11:01:13.887Z,99560.97
2022-12-01T11:03:48.917Z,99557.94
2022-12-01T11:06:37.633Z,99550.46
2022-12-01T11:09:14.804Z,99549.34
2022-12-01T11:12:04.632Z,99551.11
2022-12-01T11:14:51.808Z,99548.59
2022-12-01T11:17:49.641Z,99548.00
2022-12-01T11:20:36.215Z,99548.92
2022-12-01T11:23:33.637Z,99547.88
2022-12-01T11:26:21.075Z,99549.38
2022-12-01T11:29:11.828Z,99542.48
2022-12-01T11:31:51.002Z,99540.77
2022-12-01T11:34:44.735Z,99543.27
2022-12-01T11:37:23.777Z,99541.23
2022-12-01T11:40:25.687Z,99543.15
2022-12-01T11:43:02.787Z,99540.85
2022-12-01T11:45:51.841Z,99539.75
2022-12-01T11:48:42.631Z,99543.81
2022-12-01T11:51:30.633Z,99544.13
2022-12-01T11:54:28.797Z,99544.38
2022-12-01T11:57:33.685Z,99542.66
2022-12-01T12:00:19.993Z,99541.81
2022-12-01T12:03:26.704Z,99540.61
2022-12-01T12:06:39.826Z,99542.38
2022-12-01T12:09:43.522Z,99538.40
2022-12-01T12:12:37.790Z,99534.20
2022-12-01T12:15:22.640Z,99534.27
2022-12-01T12:18:22.765Z,99533.45
2022-12-01T12:21:18.639Z,99529.58
2022-12-01T12:24:18.863Z,99534.79
2022-12-01T12:27:29.719Z,99536.54
2022-12-01T12:30:37.729Z,99539.40
2022-12-01T12:33:33.690Z,99536.11
2022-12-01T12:36:17.752Z,99535.86
2022-12-01T12:39:16.751Z,99532.19
2022-12-01T12:41:56.795Z,99532.09
2022-12-01T12:45:10.641Z,99531.98
2022-12-01T12:48:07.621Z,99530.61
2022-12-01T12:51:15.744Z,99534.05
2022-12-01T12:54:39.721Z,99531.42
2022-12-01T12:57:34.616Z,99529.81
2022-12-01T13:00:28.651Z,99535.96
2022-12-01T13:03:16.643Z,99536.83
2022-12-01T13:06:07.753Z,99534.42
2022-12-01T13:09:05.935Z,99536.52
2022-12-01T13:12:04.618Z,99541.27
2022-12-01T13:15:05.617Z,99534.85
2022-12-01T13:17:48.633Z,99538.09
2022-12-01T13:20:39.612Z,99533.66
2022-12-01T13:23:24.713Z,99535.95
2022-12-01T13:26:08.705Z,99538.51
2022-12-01T13:28:56.743Z,99540.58
2022-12-01T13:31:55.578Z,99537.45
2022-12-01T13:34:39.713Z,99535.13
2022-12-01T13:37:39.631Z,99538.32
2022-12-01T13:40:28.128Z,99541.92
2022-12-01T13:43:17.610Z,99545.55
2022-12-01T13:46:15.652Z,99545.27
2022-12-01T13:49:06.616Z,99546.67
2022-12-01T13:52:38.752Z,99543.29
2022-12-01T13:55:26.547Z,99539.42
2022-12-01T13:58:10.563Z,99542.83
2022-12-01T14:01:10.023Z,99541.98
2022-12-01T14:04:08.618Z,99539.83
2022-12-01T14:06:49.664Z,99540.41
2022-12-01T14:09:37.547Z,99541.55
2022-12-01T14:12:18.761Z,99541.44
2022-12-01T14:15:10.599Z,99542.30
2022-12-01T14:17:45.739Z,99538.05
2022-12-01T14:20:34.599Z,99537.33
2022-12-01T14:23:21.731Z,99540.36
2022-12-01T14:26:20.620Z,99540.84
2022-12-01T14:29:15.778Z,99538.39
2022-12-01T14:32:16.808Z,99541.18
2022-12-01T14:35:13.599Z,99539.05
2022-12-01T14:38:03.614Z,99534.48
2022-12-01T14:40:38.752Z,99531.24
2022-12-01T14:43:46.616Z,99529.91
2022-12-01T14:46:29.771Z,99533.10
2022-12-01T14:49:11.613Z,99532.57
2022-12-01T14:51:54.699Z,99534.94
2022-12-01T14:54:46.612Z,99536.42
2022-12-01T14:57:37.743Z,99539.10
2022-12-01T15:00:28.585Z,99540.58
2022-12-01T15:03:16.772Z,99538.52
2022-12-01T15:05:58.610Z,99540.98
2022-12-01T15:09:10.521Z,99539.80
2022-12-01T15:11:53.959Z,99541.73
2022-12-01T15:14:46.724Z,99535.23
2022-12-01T15:17:33.301Z,99536.70
2022-12-01T15:20:47.562Z,99533.88
2022-12-01T15:23:21.995Z,99532.48
2022-12-01T15:26:09.593Z,99534.25
2022-12-01T15:28:50.547Z,99532.55
2022-12-01T15:31:38.685Z,99534.33
2022-12-01T15:34:23.917Z,99533.89
2022-12-01T15:37:13.583Z,99539.08
2022-12-01T15:43:27.581Z,99536.67
2022-12-01T15:46:19.757Z,99536.34
2022-12-01T15:48:54.765Z,99535.14
2022-12-01T15:51:42.594Z,99533.45
2022-12-01T15:54:36.588Z,99539.90
2022-12-01T15:57:33.539Z,99543.90
2022-12-01T16:00:28.736Z,99544.20
2022-12-01T16:03:05.233Z,99541.08
2022-12-01T16:05:53.683Z,99541.90
2022-12-01T16:08:34.784Z,99544.13
2022-12-01T16:11:24.568Z,99545.20
2022-12-01T16:14:09.605Z,99547.45
2022-12-01T16:16:58.722Z,99545.94
2022-12-01T16:19:45.585Z,99543.64
2022-12-01T16:22:41.133Z,99539.09
2022-12-01T16:25:37.206Z,99543.25
2022-12-01T16:28:20.879Z,99542.98
2022-12-01T16:31:05.554Z,99547.59
2022-12-01T16:33:54.582Z,99549.41
2022-12-01T16:36:29.053Z,99543.88
2022-12-01T16:39:20.641Z,99541.09
2022-12-01T16:42:00.608Z,99540.17
2022-12-01T16:44:49.622Z,99541.96
2022-12-01T16:47:26.104Z,99540.63
2022-12-01T16:50:13.564Z,99538.41
2022-12-01T16:52:49.518Z,99540.83
2022-12-01T16:56:07.565Z,99540.20
2022-12-01T16:58:42.890Z,99539.61
2022-12-01T17:01:32.088Z,99534.20
2022-12-01T17:04:07.931Z,99535.27
2022-12-01T17:06:55.719Z,99532.17
2022-12-01T17:09:31.165Z,99532.71
2022-12-01T17:12:19.581Z,99531.17
2022-12-01T17:14:54.139Z,99531.65
2022-12-01T17:17:42.778Z,99532.51
2022-12-01T17:20:18.486Z,99536.48
2022-12-01T17:23:06.563Z,99532.94
2022-12-01T17:25:48.585Z,99534.91
2022-12-01T17:28:45.556Z,99532.70
2022-12-01T17:31:34.581Z,99534.02
2022-12-01T17:34:12.699Z,99535.30
2022-12-01T17:37:02.571Z,99536.90
2022-12-01T17:39:52.580Z,99539.73
2022-12-01T17:42:33.574Z,99539.95
2022-12-01T17:45:15.856Z,99543.59
2022-12-01T17:47:57.680Z,99546.52
2022-12-01T17:50:40.247Z,99543.11
2022-12-01T17:53:28.562Z,99537.78
2022-12-01T17:56:03.705Z,99537.55
2022-12-01T17:58:51.673Z,99538.44
2022-12-01T18:01:34.612Z,99537.53
2022-12-01T18:04:22.535Z,99542.47
2022-12-01T18:07:04.713Z,99539.05
2022-12-01T18:10:00.859Z,99535.36
2022-12-01T18:12:48.575Z,99539.89
2022-12-01T18:15:29.229Z,99537.98
2022-12-01T18:18:19.557Z,99534.89
2022-12-01T18:21:01.832Z,99539.06
2022-12-01T18:24:02.368Z,99541.21
2022-12-01T18:26:52.591Z,99539.50
2022-12-01T18:29:47.662Z,99535.38
2022-12-01T18:32:39.054Z,99530.80
2022-12-01T18:35:21.540Z,99533.66
2022-12-01T18:38:16.548Z,99537.89
2022-12-01T18:41:05.650Z,99538.31
2022-12-01T18:43:43.804Z,99535.08
2022-12-01T18:46:35.612Z,99534.50
2022-12-01T18:49:17.536Z,99536.44
2022-12-01T18:52:07.527Z,99535.39
2022-12-01T18:54:42.751Z,99534.19
2022-12-01T18:57:30.617Z,99531.19
2022-12-01T19:00:06.486Z,99533.71
2022-12-01T19:02:56.789Z,99536.15
2022-12-01T19:05:40.610Z,99538.69
2022-12-01T19:08:35.817Z,99540.49
2022-12-01T19:11:26.123Z,99539.99
2022-12-01T19:14:02.272Z,99538.31
2022-12-01T19:17:09.764Z,99535.44
2022-12-01T19:19:49.844Z,99532.98
2022-12-01T19:22:32.067Z,99530.23
2022-12-01T19:25:17.010Z,99531.02
2022-12-01T19:28:03.510Z,99532.82
2022-12-01T19:30:52.536Z,99532.73
2022-12-01T19:33:40.815Z,99530.36
2022-12-01T19:36:28.673Z,99528.23
2022-12-01T19:39:12.522Z,99529.52
2022-12-01T19:41:54.803Z,99531.23
2022-12-01T19:44:36.756Z,99529.42
2022-12-01T19:47:25.000Z,99532.20
2022-12-01T19:50:00.289Z,99527.77
2022-12-01T19:52:49.546Z,99527.13
2022-12-01T19:55:24.783Z,99529.25
2022-12-01T19:58:13.690Z,99530.67
2022-12-01T20:00:50.573Z,99525.93
2022-12-01T20:03:39.888Z,99523.60
2022-12-01T20:06:22.280Z,99524.80
2022-12-01T20:09:16.541Z,99526.98
2022-12-01T20:11:59.132Z,99528.45
2022-12-01T20:14:42.687Z,99525.14
2022-12-01T20:17:25.462Z,99521.20
2022-12-01T20:20:06.877Z,99519.24
2022-12-01T20:22:50.500Z,99521.87
2022-12-01T20:25:33.937Z,99527.15
2022-12-01T20:28:16.535Z,99529.41
2022-12-01T20:31:06.535Z,99529.33
2022-12-01T20:33:41.848Z,99531.47
2022-12-01T20:36:37.196Z,99528.79
2022-12-01T20:39:14.586Z,99527.16
2022-12-01T20:42:05.221Z,99521.71
2022-12-01T20:44:47.647Z,99520.87
2022-12-01T20:47:31.670Z,99521.48
2022-12-01T20:50:15.389Z,99528.48
2022-12-01T20:52:57.031Z,99525.24
2022-12-01T20:55:44.577Z,99527.94
2022-12-01T20:58:37.545Z,99527.13
2022-12-01T21:01:17.616Z,99524.52
2022-12-01T21:04:07.499Z,99523.70
2022-12-01T21:06:42.411Z,99529.05
2022-12-01T21:09:31.514Z,99531.92
2022-12-01T21:12:39.016Z,99529.72
2022-12-01T21:15:29.266Z,99524.67
2022-12-01T21:18:10.389Z,99522.14
2022-12-01T21:20:59.491Z,99521.71
2022-12-01T21:23:43.350Z,99516.80
2022-12-01T21:26:34.874Z,99521.52
2022-12-01T21:29:29.308Z,99525.07
2022-12-01T21:32:26.673Z,99523.88
2022-12-01T21:35:20.524Z,99526.08
2022-12-01T21:38:07.769Z,99526.52
2022-12-01T21:40:57.862Z,99532.55
2022-12-01T21:43:43.747Z,99531.11
2022-12-01T21:46:38.564Z,99529.39
2022-12-01T21:49:49.232Z,99529.27
2022-12-01T21:52:50.427Z,99528.48
2022-12-01T21:55:33.791Z,99528.98
2022-12-01T21:58:27.565Z,99530.13
2022-12-01T22:01:06.492Z,99530.29
2022-12-01T22:04:00.569Z,99528.20
2022-12-01T22:06:48.662Z,99531.52
2022-12-01T22:09:38.522Z,99533.30
2022-12-01T22:12:24.971Z,99527.69
2022-12-01T22:15:09.554Z,99524.79
2022-12-01T22:17:51.704Z,99523.52
2022-12-01T22:20:32.533Z,99525.08
2022-12-01T22:23:17.616Z,99524.30
2022-12-01T22:25:58.491Z,99522.70
2022-12-01T22:28:53.489Z,99519.95
2022-12-01T22:31:41.491Z,99514.43
2022-12-01T22:34:25.443Z,99518.65
2022-12-01T22:37:29.512Z,99516.88
2022-12-01T22:40:40.566Z,99512.92
2022-12-01T22:43:24.454Z,99512.24
2022-12-01T22:46:37.611Z,99509.75
2022-12-01T22:49:30.568Z,99511.35
2022-12-01T22:52:27.614Z,99511.27
2022-12-01T22:55:02.572Z,99512.81
2022-12-01T22:57:50.503Z,99511.44
2022-12-01T23:00:37.589Z,99507.45
2022-12-01T23:03:32.457Z,99510.05
2022-12-01T23:07:11.681Z,99507.76
2022-12-01T23:09:50.710Z,99504.92
2022-12-01T23:12:41.636Z,99503.05
2022-12-01T23:15:36.500Z,99503.48
2022-12-01T23:18:33.481Z,99503.90
2022-12-01T23:21:15.464Z,99504.66
2022-12-01T23:24:10.504Z,99504.17
2022-12-01T23:26:58.475Z,99502.71
2022-12-01T23:29:40.686Z,99504.41
2022-12-01T23:32:35.626Z,99503.42
2022-12-01T23:35:25.468Z,99504.66
2022-12-01T23:38:00.622Z,99506.55
2022-12-01T23:40:48.470Z,99501.35
2022-12-01T23:43:28.651Z,99506.33
2022-12-01T23:46:26.512Z,99506.35
2022-12-01T23:49:07.533Z,99505.13
2022-12-01T23:51:53.475Z,99503.98
2022-12-01T23:54:38.602Z,99500.74
2022-12-01T23:57:29.471Z,99501.80
